createdAt,value
2022-08-07T00:00:33.490Z,6.82
2022-08-07T00:03:01.332Z,7.85
2022-08-07T00:05:38.550Z,7.40
2022-08-07T00:08:08.039Z,7.25
2022-08-07T00:10:48.184Z,7.88
2022-08-07T00:13:30.662Z,7.53
2022-08-07T00:16:03.399Z,7.55
2022-08-07T00:18:31.895Z,7.72
2022-08-07T00:21:56.911Z,8.35
2022-08-07T00:24:02.544Z,7.40
2022-08-07T00:26:59.065Z,7.97
2022-08-07T00:29:26.427Z,7.75
2022-08-07T00:31:59.955Z,8.02
2022-08-07T00:34:30.676Z,7.40
2022-08-07T00:37:02.541Z,7.47
2022-08-07T00:39:54.262Z,7.53
2022-08-07T00:42:28.997Z,7.45
2022-08-07T00:44:57.967Z,8.00
2022-08-07T00:48:07.978Z,8.90
2022-08-07T00:50:33.071Z,7.88
2022-08-07T00:53:09.206Z,8.27
2022-08-07T00:56:02.139Z,8.60
2022-08-07T00:58:32.957Z,8.07
2022-08-07T01:01:04.383Z,8.27
2022-08-07T01:03:56.379Z,8.30
2022-08-07T01:06:23.218Z,7.78
2022-08-07T01:08:55.730Z,8.40
2022-08-07T01:12:09.982Z,8.55
2022-08-07T01:14:28.740Z,8.68
2022-08-07T01:17:00.543Z,8.93
2022-08-07T01:19:34.258Z,8.93
2022-08-07T01:22:22.777Z,7.82
2022-08-07T01:25:00.976Z,8.00
2022-08-07T01:30:21.842Z,7.70
2022-08-07T01:33:02.264Z,7.70
2022-08-07T01:35:52.788Z,7.80
2022-08-07T01:38:25.769Z,7.88
2022-08-07T01:41:03.988Z,7.85
2022-08-07T01:43:38.388Z,8.32
2022-08-07T01:46:23.034Z,8.23
2022-08-07T01:49:00.122Z,8.02
2022-08-07T01:52:03.277Z,8.25
2022-08-07T01:54:32.856Z,8.27
2022-08-07T01:57:24.910Z,8.57
2022-08-07T02:00:00.648Z,8.60
2022-08-07T02:03:18.877Z,8.82
2022-08-07T02:06:02.026Z,8.85
2022-08-07T02:08:41.750Z,9.68
2022-08-07T02:11:31.010Z,10.70
2022-08-07T02:14:06.661Z,9.85
2022-08-07T02:16:50.781Z,10.52
2022-08-07T02:20:07.790Z,10.60
2022-08-07T02:22:15.381Z,10.63
2022-08-07T02:24:47.720Z,11.10
2022-08-07T02:27:23.313Z,11.00
2022-08-07T02:29:58.661Z,11.25
2022-08-07T02:32:59.994Z,10.82
2022-08-07T02:36:28.290Z,9.73
2022-08-07T02:38:22.720Z,10.32
2022-08-07T02:40:59.996Z,10.40
2022-08-07T02:43:35.139Z,9.60
2022-08-07T02:46:07.897Z,10.98
2022-08-07T02:48:47.063Z,10.98
2022-08-07T02:51:42.206Z,10.80
2022-08-07T02:56:53.492Z,9.05
2022-08-07T02:59:41.558Z,9.55
2022-08-07T03:02:17.899Z,9.98
2022-08-07T03:04:53.750Z,9.18
2022-08-07T03:07:42.953Z,8.98
2022-08-07T03:10:36.829Z,8.13
2022-08-07T03:13:13.003Z,8.35
2022-08-07T03:15:56.716Z,7.00
2022-08-07T03:19:37.095Z,7.18
2022-08-07T03:22:04.868Z,6.95
2022-08-07T03:24:52.403Z,6.80
2022-08-07T03:27:59.574Z,7.47
2022-08-07T03:30:33.288Z,6.22
2022-08-07T03:33:10.456Z,6.82
2022-08-07T03:35:53.631Z,6.82
2022-08-07T03:38:45.394Z,6.80
2022-08-07T03:41:41.658Z,6.82
2022-08-07T03:44:35.446Z,6.45
2022-08-07T03:47:15.802Z,5.97
2022-08-07T03:49:53.597Z,6.38
2022-08-07T03:52:30.036Z,6.60
2022-08-07T03:55:20.311Z,6.78
2022-08-07T03:58:32.978Z,5.90
2022-08-07T04:00:53.345Z,5.82
2022-08-07T04:03:49.629Z,6.20
2022-08-07T04:06:37.050Z,5.97
2022-08-07T04:09:25.130Z,5.72
2022-08-07T04:12:25.604Z,5.97
2022-08-07T04:15:05.101Z,5.60
2022-08-07T04:18:57.462Z,5.97
2022-08-07T04:21:25.542Z,5.55
2022-08-07T04:24:26.890Z,5.70
2022-08-07T04:27:15.155Z,6.53
2022-08-07T04:30:04.717Z,5.53
2022-08-07T04:33:07.374Z,5.63
2022-08-07T04:35:50.181Z,6.85
2022-08-07T04:38:30.026Z,5.60
2022-08-07T04:41:03.766Z,5.53
2022-08-07T04:44:16.032Z,6.10
2022-08-07T04:47:57.159Z,6.00
2022-08-07T04:54:05.842Z,5.38
2022-08-07T04:58:27.463Z,5.13
2022-08-07T05:00:56.107Z,5.22
2022-08-07T05:04:07.064Z,5.32
2022-08-07T05:07:19.640Z,5.15
2022-08-07T05:11:02.999Z,5.40
2022-08-07T05:14:53.190Z,5.60
2022-08-07T05:17:01.532Z,5.60
2022-08-07T05:19:45.114Z,4.90
2022-08-07T05:22:27.626Z,5.40
2022-08-07T05:25:03.423Z,5.20
2022-08-07T05:32:20.482Z,4.82
2022-08-07T05:36:07.084Z,4.70
2022-08-07T05:38:58.104Z,4.63
2022-08-07T05:41:22.524Z,4.13
2022-08-07T05:44:11.887Z,4.60
2022-08-07T05:46:52.831Z,5.00
2022-08-07T05:49:41.000Z,4.53
2022-08-07T05:52:32.614Z,3.90
2022-08-07T06:11:53.779Z,4.53
2022-08-07T06:25:36.073Z,6.03
2022-08-07T07:04:56.335Z,5.30
2022-08-07T07:48:46.307Z,4.95
2022-08-07T08:07:59.915Z,4.65
2022-08-07T08:50:08.135Z,4.30
2022-08-07T09:05:07.022Z,4.38
2022-08-07T09:08:46.946Z,3.70
2022-08-07T09:12:41.481Z,3.90
2022-08-07T11:04:49.984Z,3.85
2022-08-07T12:28:03.951Z,4.00
2022-08-07T12:52:13.808Z,4.05
2022-08-07T14:10:31.746Z,2.42
2022-08-07T14:55:55.862Z,2.20
2022-08-07T16:30:07.734Z,2.22
2022-08-07T16:47:05.594Z,2.92
2022-08-07T16:50:52.809Z,2.88
2022-08-07T16:59:45.995Z,3.33
2022-08-07T17:07:28.558Z,3.10
2022-08-07T17:20:00.690Z,3.55
2022-08-07T17:23:48.115Z,4.78
2022-08-07T17:31:16.079Z,3.55
2022-08-07T17:42:33.825Z,3.60
2022-08-07T17:52:12.903Z,3.28
2022-08-07T18:02:39.741Z,4.00
2022-08-07T18:06:02.744Z,4.40
2022-08-07T18:09:15.956Z,4.18
2022-08-07T18:12:28.700Z,3.75
2022-08-07T18:21:38.365Z,3.90
2022-08-07T18:24:12.375Z,3.63
2022-08-07T18:40:38.583Z,3.97
2022-08-07T18:50:04.701Z,3.85
2022-08-07T18:52:55.633Z,3.20
2022-08-07T19:00:36.522Z,3.47
2022-08-07T19:12:48.829Z,3.65
2022-08-07T19:16:05.779Z,3.80
2022-08-07T19:18:49.366Z,3.28
2022-08-07T19:22:04.693Z,4.05
2022-08-07T19:24:52.462Z,4.38
2022-08-07T19:36:13.124Z,4.13
2022-08-07T19:39:56.966Z,3.50
2022-08-07T19:43:00.583Z,3.92
2022-08-07T19:46:05.959Z,3.97
2022-08-07T19:49:57.209Z,3.80
2022-08-07T19:52:22.536Z,4.05
2022-08-07T19:54:58.209Z,3.95
2022-08-07T19:58:15.849Z,4.35
2022-08-07T20:00:55.569Z,4.30
2022-08-07T20:03:33.672Z,4.32
2022-08-07T20:06:15.449Z,4.10
2022-08-07T20:09:03.039Z,4.32
2022-08-07T20:15:57.592Z,5.93
2022-08-07T20:18:35.711Z,4.40
2022-08-07T20:21:21.422Z,3.97
2022-08-07T20:24:06.232Z,4.90
2022-08-07T20:26:52.403Z,4.65
2022-08-07T20:30:00.196Z,4.57
2022-08-07T20:32:52.846Z,4.85
2022-08-07T20:35:36.585Z,4.93
2022-08-07T20:39:11.702Z,4.50
2022-08-07T20:41:54.332Z,4.57
2022-08-07T20:44:31.724Z,5.88
2022-08-07T20:47:11.299Z,5.65
2022-08-07T20:49:59.336Z,5.80
2022-08-07T20:52:51.232Z,5.40
2022-08-07T20:55:25.529Z,6.38
2022-08-07T20:58:03.369Z,6.28
2022-08-07T21:00:42.170Z,7.07
2022-08-07T21:03:16.600Z,6.63
2022-08-07T21:06:21.577Z,7.10
2022-08-07T21:09:07.551Z,7.35
2022-08-07T21:11:53.315Z,6.95
2022-08-07T21:14:32.884Z,7.75
2022-08-07T21:18:01.876Z,7.10
2022-08-07T21:20:10.050Z,6.85
2022-08-07T21:22:53.247Z,7.03
2022-08-07T21:25:39.262Z,7.43
2022-08-07T21:28:19.019Z,7.13
2022-08-07T21:31:49.555Z,6.97
2022-08-07T21:34:34.642Z,7.03
2022-08-07T21:37:26.447Z,6.93
2022-08-07T21:40:39.816Z,6.75
2022-08-07T21:43:22.801Z,7.28
2022-08-07T21:46:32.275Z,6.82
2022-08-07T21:49:18.427Z,6.95
2022-08-07T21:52:14.214Z,6.72
2022-08-07T21:55:00.893Z,6.97
2022-08-07T21:57:52.336Z,6.55
2022-08-07T22:00:25.478Z,6.68
2022-08-07T22:03:16.817Z,7.18
2022-08-07T22:05:51.885Z,6.68
2022-08-07T22:13:03.727Z,6.68
2022-08-07T22:16:42.806Z,7.10
2022-08-07T22:19:08.776Z,7.18
2022-08-07T22:22:02.291Z,6.63
2022-08-07T22:24:56.789Z,6.93
2022-08-07T22:28:03.229Z,6.63
2022-08-07T22:30:26.454Z,7.65
2022-08-07T22:33:09.219Z,7.80
2022-08-07T22:35:57.782Z,8.05
2022-08-07T22:38:53.079Z,7.05
2022-08-07T22:42:03.196Z,7.20
2022-08-07T22:44:29.075Z,7.10
2022-08-07T22:47:17.024Z,8.18
2022-08-07T22:52:37.577Z,7.05
2022-08-07T22:55:29.702Z,8.32
2022-08-07T22:58:08.681Z,8.80
2022-08-07T23:00:53.072Z,8.95
2022-08-07T23:03:58.529Z,9.40
2022-08-07T23:06:52.046Z,8.65
2022-08-07T23:10:05.191Z,9.23
2022-08-07T23:12:34.449Z,8.02
2022-08-07T23:16:06.991Z,7.75
2022-08-07T23:19:15.777Z,8.52
2022-08-07T23:21:55.310Z,8.15
2022-08-07T23:24:50.482Z,8.93
2022-08-07T23:27:33.606Z,10.68
2022-08-07T23:30:39.357Z,11.10
2022-08-07T23:34:34.749Z,10.73
2022-08-07T23:36:30.309Z,10.27
2022-08-07T23:39:21.946Z,11.25
2022-08-07T23:42:24.004Z,10.27
2022-08-07T23:45:50.189Z,10.20
2022-08-07T23:48:37.782Z,10.98
2022-08-07T23:52:59.919Z,11.48
2022-08-07T23:55:04.670Z,11.63
2022-08-07T23:57:44.794Z,11.45
